Time;durP1;ratioP1;P1;durP2;ratioP2;P2;SDS_P1;SDS_P2;PMS_P1;PMS_P2;Temp;Humidity;BMP_temperature;BMP_pressure;BME280_temperature;BME280_humidity;BME280_pressure;Samples;Min_cycle;Max_cycle;Signal;HPM_P1;HPM_P2
2023/09/18 00:01:12;;;;;;;12.60;5.18;;;16.00;99.90;;;;;;4970528;28;20088;-61
2023/09/18 00:03:39;;;;;;;9.85;4.88;;;16.00;99.90;;;;;;4954249;28;20042;-61
2023/09/18 00:06:08;;;;;;;11.07;5.18;;;15.90;99.90;;;;;;4970463;28;20038;-61
2023/09/18 00:08:35;;;;;;;10.93;5.22;;;16.00;99.90;;;;;;4951752;28;20576;-61
2023/09/18 00:11:01;;;;;;;13.52;5.65;;;16.00;99.90;;;;;;4952881;28;20042;-62
2023/09/18 00:13:27;;;;;;;11.30;5.15;;;16.00;99.90;;;;;;4986543;28;20465;-61
2023/09/18 00:15:59;;;;;;;10.63;5.70;;;16.00;99.90;;;;;;4953829;28;20049;-61
2023/09/18 00:18:25;;;;;;;10.20;5.47;;;16.00;99.90;;;;;;4953248;28;20058;-61
2023/09/18 00:21:02;;;;;;;11.35;5.45;;;16.10;99.90;;;;;;4969851;28;20038;-62
2023/09/18 00:23:29;;;;;;;13.15;6.25;;;16.20;99.90;;;;;;4967021;28;20054;-62
2023/09/18 00:25:57;;;;;;;11.15;5.80;;;16.30;99.90;;;;;;4949349;28;20783;-62
2023/09/18 00:28:24;;;;;;;9.50;5.10;;;16.40;99.90;;;;;;4950275;28;20154;-62
2023/09/18 00:30:53;;;;;;;10.55;5.88;;;16.40;99.90;;;;;;4967959;28;20042;-62
2023/09/18 00:33:20;;;;;;;12.90;5.63;;;16.50;99.90;;;;;;4968526;28;20034;-62
2023/09/18 00:35:49;;;;;;;11.38;5.40;;;16.70;99.90;;;;;;5053844;28;20057;-62
2023/09/18 00:38:19;;;;;;;11.95;5.40;;;16.70;99.90;;;;;;4986345;28;20559;-62
2023/09/18 00:40:49;;;;;;;12.43;5.88;;;16.80;99.90;;;;;;4986515;28;20046;-62
2023/09/18 00:43:15;;;;;;;11.70;5.93;;;16.90;99.90;;;;;;4969066;28;20070;-62
2023/09/18 00:45:49;;;;;;;11.88;5.70;;;16.90;99.90;;;;;;4952542;28;20070;-62
2023/09/18 00:48:16;;;;;;;11.15;5.65;;;17.00;99.90;;;;;;4969073;28;20529;-63
2023/09/18 00:50:46;;;;;;;11.15;5.55;;;17.00;99.90;;;;;;5040338;28;20045;-62
2023/09/18 00:53:52;;;;;;;12.52;6.03;;;17.00;99.90;;;;;;5026767;28;20207;-62
2023/09/18 00:56:20;;;;;;;10.63;5.82;;;17.10;99.90;;;;;;4980633;28;20077;-61
2023/09/18 00:58:47;;;;;;;10.43;5.70;;;17.00;99.90;;;;;;4980630;28;20042;-62
2023/09/18 01:01:22;;;;;;;8.63;4.72;;;17.10;99.90;;;;;;4968427;28;20051;-61
2023/09/18 01:03:51;;;;;;;8.07;5.15;;;17.10;99.90;;;;;;4968456;28;20061;-62
2023/09/18 01:06:20;;;;;;;8.05;4.57;;;17.10;99.90;;;;;;4968551;28;20042;-61
2023/09/18 01:08:53;;;;;;;10.63;4.82;;;17.00;99.90;;;;;;4985381;28;20067;-62
2023/09/18 01:11:50;;;;;;;8.95;5.07;;;17.00;99.90;;;;;;4969087;28;20073;-62
2023/09/18 01:14:31;;;;;;;9.57;4.78;;;17.00;99.90;;;;;;4971723;28;20046;-62
2023/09/18 01:17:04;;;;;;;9.05;4.88;;;17.00;99.90;;;;;;4988936;28;20123;-62
2023/09/18 01:19:40;;;;;;;11.90;5.97;;;17.00;99.90;;;;;;4956907;28;20049;-62
2023/09/18 01:22:10;;;;;;;9.77;4.60;;;17.00;99.90;;;;;;4968135;28;20506;-62
2023/09/18 01:24:41;;;;;;;7.68;4.63;;;16.90;99.90;;;;;;5050518;28;20064;-61
2023/09/18 01:27:18;;;;;;;11.60;4.50;;;16.90;99.90;;;;;;5043282;28;20059;-62
2023/09/18 01:29:45;;;;;;;10.95;5.47;;;16.90;99.90;;;;;;5055879;28;20531;-62
2023/09/18 01:32:12;;;;;;;9.75;4.43;;;16.80;99.90;;;;;;5057794;28;20044;-62
2023/09/18 01:34:46;;;;;;;9.23;3.97;;;16.80;99.90;;;;;;5073052;28;20048;-62
2023/09/18 01:37:16;;;;;;;8.02;4.00;;;16.70;99.90;;;;;;5057412;28;20130;-62
2023/09/18 01:39:44;;;;;;;9.68;4.57;;;16.70;99.90;;;;;;5057346;28;20048;-62
2023/09/18 01:42:14;;;;;;;12.73;5.15;;;16.60;99.90;;;;;;5046510;28;20044;-62
2023/09/18 01:44:41;;;;;;;8.50;4.28;;;16.60;99.90;;;;;;5051781;28;20568;-62
2023/09/18 01:47:44;;;;;;;8.80;4.70;;;16.70;99.90;;;;;;5070943;28;20062;-62
2023/09/18 01:50:59;;;;;;;7.78;4.57;;;16.80;99.90;;;;;;5052853;28;20059;-62
2023/09/18 01:54:04;;;;;;;9.82;4.82;;;16.80;99.90;;;;;;5052711;28;20045;-62
2023/09/18 01:57:02;;;;;;;7.60;4.68;;;16.90;99.90;;;;;;5053113;28;20047;-62
2023/09/18 02:00:18;;;;;;;7.85;4.50;;;16.90;99.90;;;;;;5059984;28;20538;-62
2023/09/18 02:03:30;;;;;;;9.05;5.05;;;17.00;99.90;;;;;;5089961;28;20055;-62
2023/09/18 02:06:50;;;;;;;8.65;5.07;;;17.10;99.90;;;;;;5073108;28;20091;-62
2023/09/18 02:10:06;;;;;;;10.52;5.85;;;17.10;99.90;;;;;;5070125;28;20117;-62
2023/09/18 02:13:24;;;;;;;10.20;5.35;;;17.20;99.90;;;;;;5030748;28;20091;-62
2023/09/18 02:16:46;;;;;;;12.02;5.65;;;17.30;99.90;;;;;;5062180;28;20108;-62
2023/09/18 02:20:15;;;;;;;9.93;4.50;;;17.30;99.90;;;;;;5054542;28;20045;-62
2023/09/18 02:23:40;;;;;;;11.48;5.63;;;17.30;99.90;;;;;;5012680;28;20090;-62
2023/09/18 02:27:00;;;;;;;9.38;4.90;;;17.40;99.90;;;;;;4942326;28;20060;-62
2023/09/18 02:30:24;;;;;;;10.27;5.55;;;17.40;99.90;;;;;;4964037;28;20092;-62
2023/09/18 02:33:41;;;;;;;9.43;5.00;;;17.40;99.90;;;;;;5039379;28;20448;-62
2023/09/18 02:37:02;;;;;;;10.75;5.53;;;17.50;99.90;;;;;;5023309;28;20060;-62
2023/09/18 02:40:26;;;;;;;9.68;4.50;;;17.50;99.90;;;;;;5067708;28;20049;-62
2023/09/18 02:43:39;;;;;;;9.15;4.82;;;17.60;99.90;;;;;;5048742;28;20120;-62
2023/09/18 02:46:58;;;;;;;10.73;5.97;;;17.60;99.90;;;;;;5049552;28;20048;-62
2023/09/18 02:50:22;;;;;;;14.02;5.07;;;17.60;99.90;;;;;;5052913;28;20051;-62
2023/09/18 02:53:55;;;;;;;9.02;4.80;;;17.70;99.90;;;;;;5036232;28;20048;-62
2023/09/18 02:57:06;;;;;;;7.85;4.90;;;17.70;99.90;;;;;;5052045;28;20044;-62
2023/09/18 03:00:28;;;;;;;7.53;4.53;;;17.70;99.90;;;;;;5060922;28;20050;-62
2023/09/18 03:04:01;;;;;;;10.18;4.63;;;17.70;99.90;;;;;;5047314;28;20061;-62
2023/09/18 03:07:29;;;;;;;9.43;4.50;;;17.70;99.90;;;;;;5028658;28;20690;-62
2023/09/18 03:11:05;;;;;;;9.55;4.93;;;17.80;99.90;;;;;;5028035;28;20118;-62
2023/09/18 03:14:25;;;;;;;8.93;5.18;;;17.80;99.90;;;;;;5014862;28;20053;-62
2023/09/18 03:17:41;;;;;;;8.73;4.90;;;17.80;99.90;;;;;;5040434;28;20086;-62
2023/09/18 03:21:09;;;;;;;11.25;4.65;;;17.80;99.90;;;;;;5021149;28;20049;-62
2023/09/18 03:24:33;;;;;;;9.40;5.05;;;17.80;99.90;;;;;;5036707;28;20057;-62
2023/09/18 03:28:00;;;;;;;10.18;5.57;;;17.80;99.90;;;;;;4987064;28;20053;-62
2023/09/18 03:31:25;;;;;;;8.35;5.03;;;17.80;99.90;;;;;;5021971;28;20055;-62
2023/09/18 03:34:41;;;;;;;12.13;5.90;;;17.80;99.90;;;;;;5042964;28;20048;-62
2023/09/18 03:38:07;;;;;;;10.95;4.72;;;17.80;99.90;;;;;;5002004;28;20056;-62
2023/09/18 03:41:28;;;;;;;11.63;5.63;;;17.70;99.90;;;;;;5038912;28;20497;-62
2023/09/18 03:44:54;;;;;;;12.00;5.57;;;17.70;99.90;;;;;;5010180;28;20061;-62
2023/09/18 03:48:21;;;;;;;9.20;4.47;;;17.80;99.90;;;;;;5044633;28;20053;-62
2023/09/18 03:51:38;;;;;;;10.23;5.63;;;17.80;99.90;;;;;;5029100;28;20103;-61
2023/09/18 03:54:30;;;;;;;10.40;4.50;;;17.80;99.90;;;;;;5007752;28;20049;-62
2023/09/18 03:57:38;;;;;;;9.18;5.10;;;17.80;99.90;;;;;;5010528;28;20132;-62
2023/09/18 04:00:57;;;;;;;12.48;5.55;;;17.80;99.90;;;;;;5028739;28;20048;-62
2023/09/18 04:04:28;;;;;;;9.75;6.03;;;17.90;99.90;;;;;;5013265;28;20148;-62
2023/09/18 04:07:54;;;;;;;8.60;5.22;;;17.90;99.90;;;;;;4997695;28;20064;-62
2023/09/18 04:11:15;;;;;;;9.50;5.28;;;17.90;99.90;;;;;;5008744;28;20128;-62
2023/09/18 04:14:42;;;;;;;9.27;5.28;;;17.90;99.90;;;;;;5021704;28;20401;-61
2023/09/18 04:18:07;;;;;;;10.45;5.03;;;17.90;99.90;;;;;;5008660;28;20481;-61
2023/09/18 04:21:43;;;;;;;7.03;4.63;;;18.00;99.90;;;;;;5024809;28;20059;-61
2023/09/18 04:25:08;;;;;;;8.35;4.30;;;18.00;99.90;;;;;;5007919;28;20049;-62
2023/09/18 04:28:43;;;;;;;10.57;4.70;;;18.00;99.90;;;;;;5008925;28;20053;-61
2023/09/18 04:32:07;;;;;;;7.65;4.40;;;18.00;99.90;;;;;;5023903;28;20041;-61
2023/09/18 04:35:39;;;;;;;9.70;4.43;;;18.00;99.90;;;;;;4989473;28;20068;-61
2023/09/18 04:39:15;;;;;;;8.57;4.47;;;18.00;99.90;;;;;;4983301;28;20051;-62
2023/09/18 04:42:23;;;;;;;11.20;4.97;;;17.90;99.90;;;;;;4968852;28;20058;-62
2023/09/18 04:45:38;;;;;;;10.05;4.40;;;17.90;99.90;;;;;;4966749;28;20054;-62
2023/09/18 04:48:55;;;;;;;8.10;4.68;;;17.90;99.90;;;;;;4951383;28;20447;-62
2023/09/18 04:52:16;;;;;;;7.70;4.82;;;18.00;99.90;;;;;;4951635;28;20046;-62
2023/09/18 04:55:30;;;;;;;10.90;4.72;;;18.00;99.90;;;;;;4956185;28;20198;-61
2023/09/18 04:58:57;;;;;;;8.05;4.22;;;18.00;99.90;;;;;;4956364;28;20487;-62
2023/09/18 05:02:05;;;;;;;6.97;4.35;;;18.00;99.90;;;;;;4972919;28;20050;-62
2023/09/18 05:05:31;;;;;;;8.10;4.70;;;18.00;99.90;;;;;;5025756;28;20055;-63
2023/09/18 05:09:02;;;;;;;5.78;3.15;;;18.10;99.90;;;;;;4957470;28;20059;-62
2023/09/18 05:12:26;;;;;;;7.20;3.72;;;18.10;99.90;;;;;;4979808;28;20054;-62
2023/09/18 05:15:46;;;;;;;9.32;3.20;;;18.20;99.90;;;;;;5074232;28;20527;-62
2023/09/18 05:19:02;;;;;;;6.97;3.92;;;18.20;99.90;;;;;;5090567;28;20180;-62
2023/09/18 05:22:19;;;;;;;5.22;3.15;;;18.30;99.90;;;;;;5092496;28;20044;-62
2023/09/18 05:25:41;;;;;;;7.20;2.85;;;18.30;99.90;;;;;;5061103;28;20409;-64
2023/09/18 05:29:00;;;;;;;8.93;3.72;;;18.40;99.90;;;;;;5053851;28;20587;-63
2023/09/18 05:32:27;;;;;;;4.68;2.88;;;18.40;99.90;;;;;;5063500;28;20058;-62
2023/09/18 05:35:54;;;;;;;10.23;4.47;;;18.50;99.90;;;;;;5034787;28;20107;-62
2023/09/18 05:39:20;;;;;;;6.60;3.05;;;18.50;99.90;;;;;;4962672;28;20097;-62
2023/09/18 05:42:46;;;;;;;5.32;3.03;;;18.40;99.90;;;;;;5012490;28;20421;-61
2023/09/18 05:46:16;;;;;;;9.02;3.75;;;18.40;99.90;;;;;;5066587;28;20052;-62
2023/09/18 05:49:37;;;;;;;9.80;4.38;;;18.40;99.90;;;;;;5039272;28;20061;-61
2023/09/18 05:53:00;;;;;;;11.55;4.55;;;18.50;99.90;;;;;;5052104;28;20041;-61
2023/09/18 05:56:11;;;;;;;7.82;3.92;;;18.50;99.90;;;;;;5032183;28;20139;-61
2023/09/18 05:59:35;;;;;;;7.38;4.32;;;18.50;99.90;;;;;;5052632;28;20056;-61
2023/09/18 06:02:59;;;;;;;6.87;3.20;;;18.50;99.90;;;;;;5069143;28;20192;-61
2023/09/18 06:06:22;;;;;;;6.30;3.90;;;18.50;99.90;;;;;;5017372;28;20053;-61
2023/09/18 06:09:34;;;;;;;13.70;4.43;;;18.50;99.90;;;;;;5048424;28;20571;-61
2023/09/18 06:12:57;;;;;;;8.40;4.40;;;18.50;99.90;;;;;;5056789;28;20141;-61
2023/09/18 06:16:19;;;;;;;8.27;4.20;;;18.50;99.90;;;;;;5051731;28;20056;-60
2023/09/18 06:19:47;;;;;;;10.93;4.63;;;18.50;99.90;;;;;;5042469;28;20048;-63
2023/09/18 06:23:12;;;;;;;9.52;4.45;;;18.50;99.90;;;;;;5052120;28;20601;-63
2023/09/18 06:26:48;;;;;;;13.98;5.88;;;18.50;99.90;;;;;;4971969;28;20398;-63
2023/09/18 06:29:50;;;;;;;8.00;4.55;;;18.60;99.90;;;;;;4955922;28;20667;-63
2023/09/18 06:32:17;;;;;;;11.18;4.55;;;18.60;99.90;;;;;;4956012;28;20045;-63
2023/09/18 06:34:49;;;;;;;7.25;4.55;;;18.60;99.90;;;;;;4971323;28;20038;-64
2023/09/18 06:37:20;;;;;;;9.68;5.15;;;18.60;99.90;;;;;;4939959;28;20050;-63
2023/09/18 06:43:33;;;;;;;9.07;4.32;;;18.50;99.90;;;;;;4986686;28;20036;-62
2023/09/18 06:46:00;;;;;;;13.07;5.07;;;18.50;99.90;;;;;;4956036;28;20750;-61
2023/09/18 06:48:26;;;;;;;8.38;4.70;;;18.50;99.90;;;;;;4972021;28;20034;-61
2023/09/18 06:50:55;;;;;;;14.32;5.35;;;18.40;99.90;;;;;;4968601;28;20053;-62
2023/09/18 06:53:22;;;;;;;8.13;4.32;;;18.40;99.90;;;;;;4971278;28;20058;-63
2023/09/18 06:55:53;;;;;;;7.35;4.10;;;18.30;99.90;;;;;;4971579;28;20431;-63
2023/09/18 06:58:21;;;;;;;7.20;3.42;;;18.30;99.90;;;;;;4972267;28;20046;-64
2023/09/18 07:00:50;;;;;;;8.88;4.28;;;18.30;99.90;;;;;;4968504;28;20039;-64
2023/09/18 07:03:18;;;;;;;6.22;3.92;;;18.30;99.90;;;;;;4967578;28;20046;-64
2023/09/18 07:05:47;;;;;;;8.35;3.70;;;18.30;99.90;;;;;;4952562;28;20035;-63
2023/09/18 07:08:22;;;;;;;10.57;4.28;;;18.30;99.90;;;;;;4971605;28;20046;-63
2023/09/18 07:10:53;;;;;;;6.07;3.53;;;18.30;99.90;;;;;;4940200;28;20495;-63
2023/09/18 07:13:21;;;;;;;7.03;3.35;;;18.30;99.90;;;;;;4951867;28;20042;-63
2023/09/18 07:15:51;;;;;;;7.55;3.22;;;18.30;99.90;;;;;;4952735;28;20047;-63
2023/09/18 07:18:18;;;;;;;8.93;4.18;;;18.40;99.90;;;;;;4951188;28;20054;-64
2023/09/18 07:20:55;;;;;;;4.63;2.33;;;18.40;99.90;;;;;;4968407;28;20043;-64
2023/09/18 07:23:21;;;;;;;6.72;3.17;;;18.40;99.90;;;;;;4951402;28;20046;-64
2023/09/18 07:25:50;;;;;;;5.85;3.20;;;18.40;99.90;;;;;;4950273;28;20055;-64
2023/09/18 07:28:18;;;;;;;5.70;3.10;;;18.40;99.90;;;;;;4982456;28;20513;-64
2023/09/18 07:30:45;;;;;;;6.10;3.15;;;18.40;99.90;;;;;;4969013;28;20077;-64
2023/09/18 07:33:17;;;;;;;;;;;18.40;99.90;;;;;;4971150;28;20092;-64
2023/09/18 07:35:53;;;;;;;5.93;2.25;;;18.40;99.90;;;;;;4987429;28;19937;-63
2023/09/18 07:38:20;;;;;;;3.70;1.67;;;18.40;99.90;;;;;;4965323;28;20224;-64
2023/09/18 07:40:47;;;;;;;6.90;2.65;;;18.40;99.90;;;;;;4970431;28;20170;-64
2023/09/18 07:43:15;;;;;;;5.13;2.35;;;18.40;99.90;;;;;;4954280;28;20739;-64
2023/09/18 07:45:45;;;;;;;5.25;2.03;;;18.40;99.90;;;;;;4969694;28;20034;-64
2023/09/18 07:48:11;;;;;;;5.38;2.78;;;18.40;99.90;;;;;;4970085;28;20042;-64
2023/09/18 07:50:50;;;;;;;4.65;2.55;;;18.40;99.90;;;;;;4987545;28;20119;-64
2023/09/18 07:53:18;;;;;;;4.90;2.40;;;18.40;99.90;;;;;;4954693;28;20070;-65
2023/09/18 07:55:55;;;;;;;4.95;2.58;;;18.40;99.90;;;;;;4969992;28;20367;-65
2023/09/18 07:58:22;;;;;;;3.92;2.63;;;18.40;99.90;;;;;;4988844;28;20042;-65
2023/09/18 08:00:48;;;;;;;6.20;3.17;;;18.40;99.90;;;;;;4973913;28;20497;-64
2023/09/18 08:03:14;;;;;;;5.35;3.03;;;18.40;99.90;;;;;;4990541;28;20048;-65
2023/09/18 08:05:45;;;;;;;5.93;2.85;;;18.50;99.90;;;;;;4991269;28;20434;-64
2023/09/18 08:08:21;;;;;;;6.10;3.05;;;18.50;99.90;;;;;;4968472;28;20054;-65
2023/09/18 08:10:47;;;;;;;5.93;2.80;;;18.50;99.90;;;;;;4970868;28;20510;-65
2023/09/18 08:13:14;;;;;;;6.32;3.40;;;18.60;99.90;;;;;;4954122;28;20049;-65
2023/09/18 08:15:48;;;;;;;5.22;3.03;;;18.70;99.90;;;;;;4971185;28;20054;-65
2023/09/18 08:18:18;;;;;;;5.10;2.60;;;18.70;99.90;;;;;;4985787;28;20057;-64
2023/09/18 08:20:47;;;;;;;4.45;2.35;;;18.70;99.90;;;;;;4969995;28;20042;-64
2023/09/18 08:23:16;;;;;;;4.50;2.45;;;18.80;99.90;;;;;;4988053;28;20074;-64
2023/09/18 08:25:42;;;;;;;5.35;2.38;;;18.80;99.90;;;;;;4964385;28;20101;-64
2023/09/18 08:28:15;;;;;;;5.00;2.88;;;18.90;99.90;;;;;;5051624;28;20496;-64
2023/09/18 08:30:47;;;;;;;4.18;2.03;;;18.90;99.90;;;;;;5052309;28;20047;-64
2023/09/18 08:33:16;;;;;;;3.65;2.05;;;18.90;99.90;;;;;;5052456;28;20041;-64
2023/09/18 08:35:44;;;;;;;3.72;2.00;;;19.00;99.90;;;;;;5051220;28;20047;-64
2023/09/18 08:38:15;;;;;;;3.55;2.10;;;19.00;99.90;;;;;;5051804;28;20131;-64
2023/09/18 08:40:43;;;;;;;3.53;1.92;;;19.00;99.90;;;;;;5034745;28;20044;-64
2023/09/18 08:43:11;;;;;;;6.80;2.15;;;19.00;99.90;;;;;;5035635;28;20044;-65
2023/09/18 08:45:43;;;;;;;4.85;2.03;;;19.00;99.90;;;;;;5052058;28;20546;-64
2023/09/18 08:48:09;;;;;;;3.10;1.23;;;19.00;99.90;;;;;;5050844;28;20434;-65
2023/09/18 08:50:41;;;;;;;3.60;1.55;;;19.00;99.90;;;;;;5051780;28;20067;-65
2023/09/18 08:53:08;;;;;;;3.78;2.22;;;19.00;99.90;;;;;;5051808;28;20451;-65
2023/09/18 08:55:37;;;;;;;3.22;1.67;;;19.00;99.90;;;;;;5051830;28;20136;-65
2023/09/18 08:58:06;;;;;;;2.38;1.30;;;19.00;99.90;;;;;;5052045;28;20419;-63
2023/09/18 09:00:42;;;;;;;3.42;1.83;;;19.00;99.90;;;;;;5036423;28;20029;-65
2023/09/18 09:03:14;;;;;;;4.72;2.35;;;19.00;99.90;;;;;;5034620;28;20045;-65
2023/09/18 09:05:44;;;;;;;4.63;2.30;;;19.10;99.90;;;;;;5051531;28;20063;-65
2023/09/18 09:08:17;;;;;;;3.85;2.83;;;19.10;99.90;;;;;;5049660;28;20067;-65
2023/09/18 09:10:45;;;;;;;4.72;2.10;;;19.20;99.90;;;;;;5049332;28;20067;-65
2023/09/18 09:13:17;;;;;;;5.18;2.25;;;19.30;99.90;;;;;;5050465;28;20036;-65
2023/09/18 09:15:49;;;;;;;5.05;2.10;;;19.40;99.90;;;;;;5034438;28;20468;-66
2023/09/18 09:18:21;;;;;;;4.80;2.25;;;19.50;99.90;;;;;;5052107;28;20446;-66
2023/09/18 09:21:08;;;;;;;8.63;2.50;;;19.60;99.90;;;;;;5051649;28;20048;-65
2023/09/18 09:23:53;;;;;;;4.65;2.70;;;19.90;99.90;;;;;;5028920;28;20051;-65
2023/09/18 09:26:23;;;;;;;7.18;2.83;;;20.40;99.90;;;;;;4970347;28;20054;-65
2023/09/18 09:28:52;;;;;;;6.93;2.70;;;20.60;99.90;;;;;;4987656;28;20043;-65
2023/09/18 09:31:30;;;;;;;5.82;3.13;;;20.60;99.90;;;;;;4969866;28;20030;-65
2023/09/18 09:33:57;;;;;;;5.45;3.05;;;20.50;99.90;;;;;;4972335;28;20107;-63
2023/09/18 09:36:24;;;;;;;4.68;2.70;;;20.50;99.90;;;;;;4973250;28;20042;-64
2023/09/18 09:38:57;;;;;;;7.78;3.25;;;20.40;99.90;;;;;;4972917;28;20055;-65
2023/09/18 09:41:23;;;;;;;4.40;2.83;;;20.40;99.90;;;;;;4972220;28;20058;-65
2023/09/18 09:43:49;;;;;;;8.73;3.53;;;20.50;99.90;;;;;;4970744;28;20107;-64
2023/09/18 09:46:17;;;;;;;5.85;3.00;;;20.60;99.90;;;;;;4954964;28;20121;-64
2023/09/18 09:49:05;;;;;;;5.60;2.83;;;20.70;99.90;;;;;;4970688;28;20050;-65
2023/09/18 09:51:32;;;;;;;6.03;3.42;;;20.80;99.90;;;;;;4954640;28;20436;-65
2023/09/18 09:54:00;;;;;;;6.63;3.17;;;20.80;99.90;;;;;;4970797;28;20065;-65
2023/09/18 09:56:44;;;;;;;6.30;3.33;;;20.80;99.90;;;;;;4970872;28;20046;-65
2023/09/18 09:59:11;;;;;;;4.97;2.85;;;21.00;99.90;;;;;;4970420;28;20103;-65
2023/09/18 10:01:38;;;;;;;6.13;3.33;;;21.50;99.90;;;;;;4954708;28;20096;-65
2023/09/18 10:04:09;;;;;;;4.25;2.80;;;22.10;99.90;;;;;;4988338;28;20121;-64
2023/09/18 10:06:36;;;;;;;4.78;2.97;;;22.50;99.90;;;;;;4969989;28;20482;-65
2023/09/18 10:09:07;;;;;;;5.30;2.72;;;22.80;99.90;;;;;;4954642;28;20091;-64
2023/09/18 10:11:41;;;;;;;4.22;2.90;;;22.90;99.90;;;;;;4969743;28;20039;-65
2023/09/18 10:14:16;;;;;;;5.88;2.70;;;23.40;99.90;;;;;;4970342;28;20394;-65
2023/09/18 10:16:49;;;;;;;3.65;1.83;;;23.60;99.90;;;;;;4970403;28;20066;-64
2023/09/18 10:19:25;;;;;;;4.25;2.38;;;23.50;99.90;;;;;;4970397;28;20129;-64
2023/09/18 10:22:22;;;;;;;4.60;2.10;;;23.30;99.90;;;;;;4970494;28;20126;-64
2023/09/18 10:24:53;;;;;;;4.28;2.50;;;23.00;99.90;;;;;;4971344;28;20058;-65
2023/09/18 10:27:22;;;;;;;4.18;2.10;;;22.80;99.90;;;;;;4996907;28;20083;-64
2023/09/18 10:29:51;;;;;;;2.67;1.65;;;22.80;99.90;;;;;;5071343;28;20040;-65
2023/09/18 10:32:20;;;;;;;3.15;1.73;;;22.50;99.90;;;;;;5053438;28;20041;-65
2023/09/18 10:34:47;;;;;;;3.72;1.70;;;22.30;99.90;;;;;;5052487;28;20048;-64
2023/09/18 10:37:15;;;;;;;2.67;2.05;;;22.10;99.90;;;;;;5053578;28;20044;-65
2023/09/18 10:39:43;;;;;;;4.43;1.50;;;21.90;99.90;;;;;;5052791;28;20106;-64
2023/09/18 10:42:10;;;;;;;2.80;1.73;;;21.60;99.90;;;;;;5030540;28;20050;-64
2023/09/18 10:44:39;;;;;;;3.17;1.60;;;21.40;99.90;;;;;;4970142;28;20122;-64
2023/09/18 10:47:07;;;;;;;2.40;1.70;;;21.70;99.90;;;;;;4970718;28;20038;-64
2023/09/18 10:49:35;;;;;;;3.42;2.08;;;22.40;99.90;;;;;;4976882;28;20034;-64
2023/09/18 10:52:01;;;;;;;3.00;1.77;;;22.60;99.90;;;;;;4991305;28;20042;-64
2023/09/18 10:54:30;;;;;;;2.47;1.67;;;22.50;99.90;;;;;;4974025;28;20042;-64
2023/09/18 10:56:57;;;;;;;2.33;1.52;;;22.50;99.90;;;;;;4971143;28;20125;-64
2023/09/18 10:59:23;;;;;;;2.45;1.38;;;23.00;99.90;;;;;;5021968;28;20052;-64
2023/09/18 11:01:50;;;;;;;3.05;1.90;;;23.30;99.90;;;;;;4990798;28;20435;-64
2023/09/18 11:04:19;;;;;;;4.68;1.80;;;23.40;99.90;;;;;;4991432;28;20512;-64
2023/09/18 11:06:54;;;;;;;;;;;23.20;99.90;;;;;;4991832;28;20685;-64
2023/09/18 11:09:21;;;;;;;2.80;1.95;;;23.10;99.90;;;;;;4990517;28;19927;-64
2023/09/18 11:12:04;;;;;;;4.30;1.45;;;23.50;99.90;;;;;;4971036;28;20058;-63
2023/09/18 11:14:50;;;;;;;3.78;1.92;;;23.90;99.90;;;;;;4971375;28;20050;-64
2023/09/18 11:17:36;;;;;;;8.23;1.80;;;24.60;99.90;;;;;;4971793;28;20088;-64
2023/09/18 11:20:28;;;;;;;3.22;2.22;;;24.70;99.90;;;;;;4971918;28;20045;-64
2023/09/18 11:23:18;;;;;;;3.08;1.70;;;24.70;99.90;;;;;;4971120;28;20050;-64
2023/09/18 11:25:46;;;;;;;1.90;1.35;;;24.50;99.90;;;;;;4988883;28;20402;-63
2023/09/18 11:28:23;;;;;;;4.07;2.28;;;24.20;99.90;;;;;;4971571;28;20685;-65
2023/09/18 11:30:58;;;;;;;2.95;1.77;;;23.90;99.90;;;;;;4955367;28;20043;-64
2023/09/18 11:33:30;;;;;;;4.18;1.45;;;23.80;99.90;;;;;;4955699;28;20034;-63
2023/09/18 11:35:56;;;;;;;2.38;1.42;;;23.80;99.90;;;;;;4997294;28;20040;-63
2023/09/18 11:38:23;;;;;;;4.50;2.17;;;23.90;99.90;;;;;;5016612;28;20038;-64
2023/09/18 11:40:49;;;;;;;2.47;1.73;;;24.00;99.90;;;;;;4955680;28;20111;-64
2023/09/18 11:43:30;;;;;;;3.15;2.20;;;24.10;99.90;;;;;;4954644;28;20060;-64
2023/09/18 11:45:58;;;;;;;2.45;1.65;;;24.10;99.90;;;;;;4971329;28;20053;-63
2023/09/18 11:48:27;;;;;;;3.13;1.95;;;23.90;99.90;;;;;;4971320;28;20095;-64
2023/09/18 11:50:54;;;;;;;3.00;1.58;;;23.80;99.90;;;;;;4970599;28;20039;-63
2023/09/18 11:53:21;;;;;;;1.95;1.30;;;23.80;99.90;;;;;;4971195;28;20093;-64
2023/09/18 11:55:47;;;;;;;1.95;1.60;;;24.10;99.90;;;;;;4970661;28;20051;-64
2023/09/18 11:58:14;;;;;;;2.70;1.58;;;24.00;99.90;;;;;;4988297;28;20422;-64
2023/09/18 12:00:47;;;;;;;2.70;1.48;;;24.00;99.90;;;;;;4969735;28;20128;-64
2023/09/18 12:03:24;;;;;;;3.42;1.38;;;24.20;99.90;;;;;;4952237;28;20079;-64
2023/09/18 12:05:55;;;;;;;3.92;1.50;;;24.10;99.90;;;;;;4954007;28;20577;-64
2023/09/18 12:08:21;;;;;;;2.10;1.58;;;24.00;99.90;;;;;;4970690;28;20042;-64
2023/09/18 12:10:51;;;;;;;3.72;1.77;;;23.70;99.90;;;;;;4987852;28;20121;-64
2023/09/18 12:13:17;;;;;;;2.28;1.55;;;23.50;99.90;;;;;;4955167;28;20035;-63
2023/09/18 12:15:43;;;;;;;2.15;1.17;;;23.40;99.90;;;;;;4970891;28;20042;-63
2023/09/18 12:18:15;;;;;;;5.00;1.60;;;23.30;99.90;;;;;;4968814;28;20414;-64
2023/09/18 12:20:50;;;;;;;2.63;1.67;;;23.10;99.90;;;;;;4970232;28;20058;-63
2023/09/18 12:23:19;;;;;;;2.83;1.67;;;22.80;99.90;;;;;;5004211;28;20357;-64
2023/09/18 12:25:50;;;;;;;2.70;1.42;;;22.60;99.90;;;;;;5070088;28;20056;-64
2023/09/18 12:28:16;;;;;;;3.97;1.50;;;22.30;99.90;;;;;;4996462;28;20054;-63
2023/09/18 12:30:46;;;;;;;4.60;1.73;;;22.10;99.90;;;;;;4954593;28;20034;-63
2023/09/18 12:33:13;;;;;;;2.63;1.52;;;21.90;99.90;;;;;;4970019;28;20039;-63
2023/09/18 12:35:42;;;;;;;3.63;1.58;;;21.90;99.90;;;;;;4945470;28;20064;-63
2023/09/18 12:38:15;;;;;;;2.55;1.55;;;22.00;99.90;;;;;;4968790;28;20552;-63
2023/09/18 12:40:41;;;;;;;5.88;1.80;;;22.10;99.90;;;;;;4966950;28;20047;-63
2023/09/18 12:43:07;;;;;;;2.40;1.65;;;22.00;99.90;;;;;;4951423;28;20050;-63
2023/09/18 12:45:35;;;;;;;3.10;1.70;;;21.90;99.90;;;;;;4955059;28;20044;-62
2023/09/18 12:48:01;;;;;;;3.40;1.83;;;21.90;99.90;;;;;;4954127;28;20517;-72
2023/09/18 12:50:27;;;;;;;2.67;1.83;;;21.90;99.90;;;;;;4963475;28;20539;-72
2023/09/18 12:52:52;;;;;;;2.85;1.60;;;21.90;99.90;;;;;;4969175;28;20119;-71
2023/09/18 12:55:25;;;;;;;3.28;1.30;;;22.10;99.90;;;;;;5072033;28;20047;-72
2023/09/18 12:57:52;;;;;;;4.50;1.40;;;22.30;99.90;;;;;;5071919;28;20037;-72
2023/09/18 13:00:26;;;;;;;2.67;1.50;;;22.60;99.90;;;;;;5071500;28;20086;-72
2023/09/18 13:02:55;;;;;;;3.33;1.50;;;22.90;99.90;;;;;;5055423;28;20043;-72
2023/09/18 13:05:25;;;;;;;3.00;1.63;;;23.00;99.90;;;;;;4991868;28;20190;-71
2023/09/18 13:07:52;;;;;;;2.20;1.05;;;23.00;99.90;;;;;;4970221;28;20054;-71
2023/09/18 13:10:18;;;;;;;2.17;1.50;;;23.10;99.90;;;;;;4973566;28;20074;-72
2023/09/18 13:12:52;;;;;;;2.50;1.27;;;23.20;99.90;;;;;;4973663;28;20070;-72
2023/09/18 13:15:32;;;;;;;3.28;1.65;;;23.70;99.90;;;;;;4956960;28;20038;-71
2023/09/18 13:18:09;;;;;;;4.57;1.90;;;23.90;99.90;;;;;;4973379;28;20042;-71
2023/09/18 13:20:35;;;;;;;3.58;1.50;;;23.60;99.90;;;;;;4972276;28;20046;-71
2023/09/18 13:23:03;;;;;;;2.38;1.38;;;23.60;99.90;;;;;;4970605;28;20039;-72
2023/09/18 13:25:33;;;;;;;2.58;1.50;;;23.60;99.90;;;;;;4957007;28;20125;-72
2023/09/18 13:28:01;;;;;;;2.95;1.30;;;23.50;99.90;;;;;;5051300;28;20049;-72
2023/09/18 13:30:27;;;;;;;3.00;1.48;;;23.40;99.90;;;;;;5037193;28;20045;-70
2023/09/18 13:33:04;;;;;;;2.03;1.20;;;23.50;99.90;;;;;;5055008;28;20068;-71
2023/09/18 13:35:30;;;;;;;2.78;1.77;;;23.70;99.90;;;;;;5053894;28;20552;-72
2023/09/18 13:37:55;;;;;;;2.78;1.50;;;23.90;99.90;;;;;;5038727;28;20127;-68
2023/09/18 13:40:22;;;;;;;3.15;1.35;;;24.00;99.90;;;;;;5038420;28;20499;-71
2023/09/18 13:42:48;;;;;;;1.52;1.13;;;23.60;99.90;;;;;;5054263;28;20037;-71
2023/09/18 13:45:17;;;;;;;2.40;1.52;;;23.10;99.90;;;;;;5055138;28;20451;-70
2023/09/18 13:47:43;;;;;;;2.40;1.30;;;22.70;99.90;;;;;;5038204;28;20075;-71
2023/09/18 13:50:09;;;;;;;2.65;1.33;;;22.60;99.90;;;;;;5054109;28;20032;-70
2023/09/18 13:52:36;;;;;;;2.10;1.20;;;22.50;99.90;;;;;;5054360;28;20071;-71
2023/09/18 13:55:05;;;;;;;1.30;1.20;;;22.30;99.90;;;;;;5055118;28;20040;-70
2023/09/18 13:57:35;;;;;;;3.72;1.48;;;22.20;99.90;;;;;;5037822;28;20041;-69
2023/09/18 14:00:07;;;;;;;4.10;2.00;;;22.30;99.90;;;;;;5054771;28;20036;-72
2023/09/18 14:02:33;;;;;;;3.83;1.08;;;22.30;99.90;;;;;;5035119;28;20444;-71
2023/09/18 14:04:59;;;;;;;2.83;1.67;;;22.10;99.90;;;;;;5035060;28;20041;-69
2023/09/18 14:07:25;;;;;;;2.45;1.70;;;21.90;99.90;;;;;;5034975;28;20400;-72
2023/09/18 14:09:50;;;;;;;1.63;1.02;;;21.80;99.90;;;;;;5034255;28;20045;-72
2023/09/18 14:12:16;;;;;;;2.92;1.60;;;21.60;99.90;;;;;;5042332;28;20508;-72
2023/09/18 14:14:43;;;;;;;2.72;1.60;;;21.50;99.90;;;;;;5054550;28;20043;-71
2023/09/18 14:17:10;;;;;;;3.47;1.88;;;21.40;99.90;;;;;;5036954;28;20090;-72